Time;durP1;ratioP1;P1;durP2;ratioP2;P2;SDS_P1;SDS_P2;PMS_P1;PMS_P2;Temp;Humidity;BMP_temperature;BMP_pressure;BME280_temperature;BME280_humidity;BME280_pressure;Samples;Min_cycle;Max_cycle;Signal;HPM_P1;HPM_P2
2024/03/27 00:01:30;;;;;;;2.47;1.35;;;;;;;17.38;54.78;98384.75;10368929;28;20105;-59
2024/03/27 00:06:31;;;;;;;1.83;1.00;;;;;;;17.37;55.16;98375.94;10368581;28;20034;-59
2024/03/27 00:11:31;;;;;;;1.23;1.10;;;;;;;17.32;54.00;98381.56;10368289;28;20053;-59
2024/03/27 00:16:31;;;;;;;2.33;1.27;;;;;;;17.37;53.92;98373.25;10368015;28;20116;-58
2024/03/27 00:21:32;;;;;;;2.35;1.45;;;;;;;17.36;54.62;98368.25;10368017;28;20025;-59
2024/03/27 00:26:32;;;;;;;2.45;1.27;;;;;;;17.34;54.57;98373.19;10368297;28;20034;-59
2024/03/27 00:31:33;;;;;;;2.42;1.25;;;;;;;17.35;54.93;98364.00;10366790;28;20018;-59
2024/03/27 00:36:34;;;;;;;1.90;1.23;;;;;;;17.38;54.60;98361.41;10367800;28;20026;-59
2024/03/27 00:41:34;;;;;;;1.55;1.13;;;;;;;17.35;54.72;98367.47;10367534;28;20235;-59
2024/03/27 00:46:34;;;;;;;5.43;1.50;;;;;;;17.36;54.17;98363.66;10367365;28;20033;-59
2024/03/27 00:51:34;;;;;;;2.60;1.23;;;;;;;17.40;55.14;98353.81;10366242;28;20288;-59
2024/03/27 00:56:37;;;;;;;2.50;1.17;;;;;;;17.39;54.63;98352.25;10367037;28;20084;-59
2024/03/27 01:01:37;;;;;;;1.92;0.82;;;;;;;17.37;54.90;98357.19;10366945;28;20284;-59
2024/03/27 01:06:38;;;;;;;2.50;1.30;;;;;;;17.38;54.35;98344.56;10373942;28;20026;-59
2024/03/27 01:11:38;;;;;;;2.87;1.10;;;;;;;17.36;54.79;98339.56;10375263;28;20292;-59
2024/03/27 01:16:38;;;;;;;1.58;0.90;;;;;;;17.34;53.41;98344.50;10374886;28;20273;-58
2024/03/27 01:21:39;;;;;;;1.40;1.02;;;;;;;17.38;53.83;98326.59;10375168;28;20026;-59
2024/03/27 01:26:39;;;;;;;2.27;0.90;;;;;;;17.33;53.69;98318.81;10374509;28;20034;-59
2024/03/27 01:31:39;;;;;;;2.07;1.00;;;;;;;17.33;54.49;98326.88;10374706;28;20276;-59
2024/03/27 01:36:39;;;;;;;3.17;1.83;;;;;;;17.37;54.37;98324.25;10374120;28;20285;-59
2024/03/27 01:41:40;;;;;;;2.30;1.50;;;;;;;17.37;54.07;98303.63;10374432;28;20292;-59
2024/03/27 01:46:41;;;;;;;2.17;1.23;;;;;;;17.34;54.03;98303.53;10373684;28;20276;-58
2024/03/27 01:51:41;;;;;;;2.80;2.03;;;;;;;17.33;54.04;98310.78;10372762;28;20033;-59
2024/03/27 01:56:42;;;;;;;2.08;1.15;;;;;;;17.35;54.14;98308.53;10372989;28;20454;-59
2024/03/27 02:01:43;;;;;;;1.83;0.80;;;;;;;17.34;54.39;98314.25;10355985;28;20026;-59
2024/03/27 02:06:43;;;;;;;1.35;0.73;;;;;;;17.35;54.38;98295.16;10371886;28;20033;-58
2024/03/27 02:11:44;;;;;;;1.60;1.05;;;;;;;17.37;54.06;98284.88;10373270;28;20049;-59
2024/03/27 02:16:44;;;;;;;1.60;0.87;;;;;;;17.34;53.65;98271.41;10371009;28;20034;-57
2024/03/27 02:21:44;;;;;;;1.87;1.10;;;;;;;17.34;54.53;98249.97;10372615;28;20293;-59
2024/03/27 02:26:45;;;;;;;1.80;0.93;;;;;;;17.37;54.30;98258.06;10370926;28;20281;-59
2024/03/27 02:31:45;;;;;;;3.80;1.27;;;;;;;17.35;54.87;98260.31;10372358;28;20013;-59
2024/03/27 02:36:45;;;;;;;1.47;0.97;;;;;;;17.32;53.98;98253.00;10371439;28;20026;-59
2024/03/27 02:41:46;;;;;;;3.17;0.90;;;;;;;17.37;53.91;98246.59;10371207;28;20748;-59
2024/03/27 02:46:46;;;;;;;1.37;0.93;;;;;;;17.36;53.49;98256.53;10371529;28;20296;-59
2024/03/27 02:51:47;;;;;;;2.10;1.02;;;;;;;17.35;53.72;98259.56;10371743;28;20277;-59
2024/03/27 02:56:48;;;;;;;1.35;0.85;;;;;;;17.30;53.80;98247.22;10385652;28;20022;-59
2024/03/27 03:01:48;;;;;;;1.55;1.00;;;;;;;17.32;54.55;98236.16;10371240;28;20018;-59
2024/03/27 03:06:48;;;;;;;1.77;1.07;;;;;;;17.33;54.12;98235.03;10371142;28;20026;-57
2024/03/27 03:11:48;;;;;;;1.30;1.00;;;;;;;17.29;54.91;98251.00;10370551;28;20297;-58
2024/03/27 03:16:49;;;;;;;1.17;0.77;;;;;;;17.32;53.74;98252.22;10370474;28;20280;-59
2024/03/27 03:21:49;;;;;;;1.63;1.20;;;;;;;17.32;54.31;98233.47;10370492;28;20493;-59
2024/03/27 03:26:49;;;;;;;1.60;1.02;;;;;;;17.29;54.73;98239.53;10368090;28;20280;-59
2024/03/27 03:31:50;;;;;;;1.87;1.10;;;;;;;17.41;54.27;98260.84;10370298;28;20026;-59
2024/03/27 03:36:50;;;;;;;1.27;1.03;;;;;;;17.41;53.57;98256.28;10369697;28;20030;-59
2024/03/27 03:41:51;;;;;;;1.55;0.85;;;;;;;17.37;53.99;98247.38;10367454;28;20287;-59
2024/03/27 03:46:51;;;;;;;2.47;0.90;;;;;;;17.34;54.49;98256.09;10367475;28;20034;-59
2024/03/27 03:51:51;;;;;;;2.37;1.30;;;;;;;17.35;54.19;98249.63;10365977;28;20277;-58
2024/03/27 03:56:52;;;;;;;1.60;0.88;;;;;;;17.37;53.24;98247.38;10366537;28;20280;-57
2024/03/27 04:01:52;;;;;;;1.80;1.10;;;;;;;17.34;53.63;98237.34;10366578;28;20100;-59
2024/03/27 04:06:52;;;;;;;1.38;0.90;;;;;;;17.37;53.45;98238.56;10364606;28;20690;-57
2024/03/27 04:11:53;;;;;;;1.50;0.70;;;;;;;17.40;53.47;98227.91;10364623;28;20046;-58
2024/03/27 04:16:53;;;;;;;1.73;1.00;;;;;;;17.46;53.50;98220.41;10365736;28;20028;-58
2024/03/27 04:21:53;;;;;;;2.93;1.50;;;;;;;17.44;53.91;98199.31;10365964;28;20488;-59
2024/03/27 04:26:54;;;;;;;1.35;0.82;;;;;;;17.44;54.04;98198.53;10364024;28;20273;-58
2024/03/27 04:31:54;;;;;;;1.50;0.90;;;;;;;17.42;53.99;98204.25;10365645;28;20084;-59
2024/03/27 04:36:54;;;;;;;1.13;0.83;;;;;;;17.45;53.42;98211.59;10363789;28;20285;-58
2024/03/27 04:41:54;;;;;;;1.60;1.00;;;;;;;17.44;54.01;98209.25;10364532;28;20462;-58
2024/03/27 04:46:55;;;;;;;1.70;1.10;;;;;;;17.45;53.51;98221.53;10364725;28;20041;-59
2024/03/27 04:51:55;;;;;;;2.27;1.80;;;;;;;17.46;53.07;98217.72;10365017;28;20279;-58
2024/03/27 04:56:56;;;;;;;1.75;0.80;;;;;;;17.42;53.95;98211.50;10364739;28;20277;-58
2024/03/27 05:01:56;;;;;;;0.87;0.87;;;;;;;17.38;54.19;98210.63;10363419;28;20459;-59
2024/03/27 05:06:56;;;;;;;1.67;1.00;;;;;;;17.39;53.98;98229.03;10362151;28;20284;-58
2024/03/27 05:12:01;;;;;;;1.50;0.87;;;;;;;17.38;53.58;98213.31;10363312;28;20300;-59
2024/03/27 05:17:01;;;;;;;1.25;0.73;;;;;;;17.38;54.23;98232.84;10364653;28;20430;-59
2024/03/27 05:22:03;;;;;;;1.33;0.85;;;;;;;17.36;53.97;98253.06;10367021;28;20080;-59
2024/03/27 05:27:04;;;;;;;2.70;1.00;;;;;;;17.37;54.36;98263.44;10362218;28;20116;-58
2024/03/27 05:32:05;;;;;;;1.87;0.97;;;;;;;17.34;53.14;98256.09;10365425;28;20084;-58
2024/03/27 05:37:06;;;;;;;1.38;0.80;;;;;;;17.34;53.78;98255.31;10365507;28;20810;-59
2024/03/27 05:42:06;;;;;;;1.53;0.97;;;;;;;17.35;53.30;98260.31;10365246;28;20026;-59
2024/03/27 05:47:07;;;;;;;1.58;0.63;;;;;;;17.36;52.77;98269.13;10366882;28;20307;-59
2024/03/27 05:52:07;;;;;;;1.17;0.63;;;;;;;17.34;53.07;98280.19;10372611;28;20030;-60
2024/03/27 05:57:08;;;;;;;1.70;1.30;;;;;;;17.36;52.68;98290.56;10374594;28;20042;-60
2024/03/27 06:02:08;;;;;;;1.73;0.80;;;;;;;17.42;53.48;98292.66;10371450;28;20297;-60
2024/03/27 06:07:08;;;;;;;3.30;1.13;;;;;;;17.46;54.61;98293.50;10372870;28;20273;-60
2024/03/27 06:12:09;;;;;;;5.57;1.30;;;;;;;17.45;53.48;98300.00;10372953;28;20655;-59
2024/03/27 06:17:09;;;;;;;7.65;1.15;;;;;;;17.56;56.04;98305.59;10372153;28;20285;-56
2024/03/27 06:22:10;;;;;;;4.30;0.90;;;;;;;17.56;55.04;98302.16;10372843;28;20489;-59
2024/03/27 06:27:10;;;;;;;5.30;1.10;;;;;;;17.52;54.09;98310.88;10373247;28;20409;-59
2024/03/27 06:32:10;;;;;;;5.93;1.07;;;;;;;17.49;54.99;98318.81;10371134;28;20284;-60
2024/03/27 06:37:11;;;;;;;8.57;2.22;;;;;;;17.43;54.22;98338.97;10369562;28;20292;-58
2024/03/27 06:42:11;;;;;;;7.20;1.77;;;;;;;17.37;55.34;98338.44;10371556;28;20033;-58
2024/03/27 06:47:11;;;;;;;11.05;3.00;;;;;;;17.36;55.88;98341.47;10372338;28;20284;-57
2024/03/27 06:52:12;;;;;;;7.53;2.27;;;;;;;17.36;54.79;98349.50;10370705;28;20481;-57
2024/03/27 06:57:12;;;;;;;7.40;2.40;;;;;;;17.37;55.77;98348.38;10372010;28;20282;-59
2024/03/27 07:02:12;;;;;;;8.30;1.83;;;;;;;17.41;55.27;98363.44;10370290;28;20785;-61
2024/03/27 07:07:13;;;;;;;6.27;1.97;;;;;;;17.22;55.02;98361.41;10369716;28;20287;-63
2024/03/27 07:12:13;;;;;;;14.13;2.93;;;;;;;17.27;54.74;98376.44;10369301;28;20656;-60
2024/03/27 07:17:13;;;;;;;6.87;2.20;;;;;;;17.24;54.42;98385.94;10369001;28;20303;-60
2024/03/27 07:22:14;;;;;;;9.30;2.20;;;;;;;17.23;55.26;98392.41;10369926;28;20358;-60
2024/03/27 07:27:15;;;;;;;9.32;1.95;;;;;;;17.28;54.55;98406.66;10368455;28;20281;-59
2024/03/27 07:32:15;;;;;;;5.22;2.10;;;;;;;17.29;53.94;98411.72;10369483;28;20046;-60
2024/03/27 07:37:15;;;;;;;5.60;1.73;;;;;;;17.27;53.63;98421.19;10352084;28;20080;-60
2024/03/27 07:42:16;;;;;;;7.73;2.13;;;;;;;17.23;55.34;98424.56;10367968;28;20351;-58
2024/03/27 07:47:17;;;;;;;5.90;2.53;;;;;;;17.23;54.36;98445.19;10368546;28;20293;-58
2024/03/27 07:52:17;;;;;;;7.70;2.93;;;;;;;17.23;53.87;98453.25;10367633;28;20389;-60
2024/03/27 07:57:18;;;;;;;5.47;1.53;;;;;;;17.19;54.45;98455.81;10368767;28;20273;-60
2024/03/27 08:02:18;;;;;;;6.67;1.93;;;;;;;17.23;54.28;98458.59;10368176;28;20812;-60
2024/03/27 08:07:18;;;;;;;4.63;1.60;;;;;;;17.22;54.83;98454.34;10367509;28;20282;-60
2024/03/27 08:12:19;;;;;;;4.73;1.90;;;;;;;17.21;53.97;98442.09;10367212;28;20045;-60
2024/03/27 08:17:19;;;;;;;3.03;1.40;;;;;;;17.22;54.10;98447.09;10368578;28;20376;-59
2024/03/27 08:22:19;;;;;;;6.57;1.90;;;;;;;17.24;53.69;98454.78;10367489;28;20653;-59
2024/03/27 08:27:20;;;;;;;3.83;1.47;;;;;;;17.21;53.88;98448.22;10367324;28;20022;-60
2024/03/27 08:32:20;;;;;;;6.57;1.67;;;;;;;17.22;53.71;98447.09;10365720;28;20287;-60
2024/03/27 08:37:20;;;;;;;3.87;1.47;;;;;;;17.28;53.67;98431.56;10367641;28;20841;-60
2024/03/27 08:42:21;;;;;;;4.00;1.40;;;;;;;17.30;53.62;98448.09;10367018;28;20323;-59
2024/03/27 08:47:21;;;;;;;6.97;1.52;;;;;;;17.29;54.57;98451.09;10367754;28;20651;-59
2024/03/27 08:52:22;;;;;;;2.70;1.30;;;;;;;17.27;53.75;98440.72;10366585;28;20026;-60
2024/03/27 08:57:22;;;;;;;5.07;1.83;;;;;;;17.29;54.18;98432.34;10366582;28;20341;-60
2024/03/27 09:02:22;;;;;;;3.07;1.30;;;;;;;17.22;54.43;98436.38;10366307;28;20319;-59
2024/03/27 09:07:23;;;;;;;3.70;1.27;;;;;;;17.26;54.54;98428.44;10348339;28;20292;-61
2024/03/27 09:12:23;;;;;;;3.83;1.48;;;;;;;17.25;54.00;98451.00;10362085;28;20095;-62
2024/03/27 09:17:23;;;;;;;3.90;1.65;;;;;;;17.22;54.83;98465.06;10363490;28;20037;-62
2024/03/27 09:22:24;;;;;;;3.23;1.60;;;;;;;17.20;54.43;98488.75;10367293;28;20060;-62
2024/03/27 09:27:25;;;;;;;3.80;1.20;;;;;;;17.16;53.98;98499.31;10374340;28;20283;-62
2024/03/27 09:32:25;;;;;;;5.05;2.13;;;;;;;17.18;54.44;98510.50;10374816;28;20276;-62
2024/03/27 09:37:26;;;;;;;2.77;1.50;;;;;;;17.17;54.64;98513.53;10373878;28;20025;-62
2024/03/27 09:42:28;;;;;;;2.90;1.30;;;;;;;17.16;54.23;98526.09;10373227;28;20300;-62
2024/03/27 09:47:31;;;;;;;6.35;1.30;;;;;;;17.19;54.79;98516.63;10374729;28;20030;-62
2024/03/27 09:52:32;;;;;;;4.65;1.33;;;;;;;17.20;54.12;98510.16;10374012;28;20061;-62
2024/03/27 09:57:33;;;;;;;3.80;1.50;;;;;;;17.22;54.76;98524.78;10373281;28;20041;-62
2024/03/27 10:02:33;;;;;;;4.40;1.57;;;;;;;17.20;54.61;98535.03;10371403;28;20022;-62
2024/03/27 10:07:35;;;;;;;2.60;1.30;;;;;;;17.17;53.45;98533.06;10373272;28;20366;-62
2024/03/27 10:12:36;;;;;;;5.28;1.60;;;;;;;17.14;55.37;98538.28;10371768;28;20289;-62
2024/03/27 10:17:36;;;;;;;4.60;1.80;;;;;;;17.13;54.15;98545.53;10372822;28;20025;-62
2024/03/27 10:22:38;;;;;;;2.45;1.48;;;;;;;17.13;55.42;98544.75;10371877;28;20292;-61
2024/03/27 10:27:39;;;;;;;2.03;1.10;;;;;;;17.17;55.24;98559.81;10373305;28;20024;-62
2024/03/27 10:32:39;;;;;;;3.30;1.63;;;;;;;17.22;54.91;98559.59;10355247;28;20022;-62
2024/03/27 10:37:40;;;;;;;3.13;1.50;;;;;;;17.21;54.65;98568.75;10372796;28;20036;-62
2024/03/27 10:42:43;;;;;;;3.17;1.10;;;;;;;17.21;54.54;98567.97;10370845;28;20041;-62
2024/03/27 10:47:43;;;;;;;1.48;0.88;;;;;;;17.19;54.83;98559.50;10355102;28;20135;-62
2024/03/27 10:52:44;;;;;;;3.38;1.50;;;;;;;17.20;54.50;98559.16;10370158;28;20084;-62
2024/03/27 10:57:45;;;;;;;2.83;1.40;;;;;;;17.19;55.17;98554.13;10370000;28;20570;-62
2024/03/27 11:02:50;;;;;;;1.70;1.10;;;;;;;17.18;55.34;98557.94;10369627;28;20043;-61
2024/03/27 11:07:50;;;;;;;3.25;1.85;;;;;;;17.34;58.51;98558.00;10368502;28;20103;-62
2024/03/27 11:12:51;;;;;;;2.72;1.05;;;;;;;17.45;56.78;98561.75;10374062;28;20489;-62
2024/03/27 11:17:54;;;;;;;3.77;1.63;;;;;;;17.47;56.98;98556.84;10371361;28;20022;-61
2024/03/27 11:22:56;;;;;;;3.45;1.13;;;;;;;17.43;56.41;98566.69;10369460;28;20858;-61
2024/03/27 11:27:56;;;;;;;3.97;1.63;;;;;;;17.41;56.41;98569.69;10369807;28;20032;-61
2024/03/27 11:32:57;;;;;;;2.92;0.98;;;;;;;17.40;56.97;98568.13;10368984;28;20018;-61
2024/03/27 11:37:57;;;;;;;2.55;0.90;;;;;;;17.37;56.25;98576.06;10369068;28;20029;-61
2024/03/27 11:42:58;;;;;;;2.17;1.08;;;;;;;17.36;56.74;98577.19;10369958;28;20072;-61
2024/03/27 11:47:59;;;;;;;2.97;1.10;;;;;;;17.31;57.38;98574.75;10368401;28;20057;-61
2024/03/27 11:52:59;;;;;;;1.55;0.90;;;;;;;17.29;56.88;98585.03;10369549;28;20331;-61
2024/03/27 11:58:00;;;;;;;3.60;0.80;;;;;;;17.25;57.44;98585.69;10368429;28;20083;-61
2024/03/27 12:03:04;;;;;;;1.60;1.00;;;;;;;17.23;57.86;98587.91;10367081;28;20288;-61
2024/03/27 12:08:05;;;;;;;2.42;1.20;;;;;;;17.20;57.55;98585.94;10368319;28;20288;-62
2024/03/27 12:13:05;;;;;;;4.35;1.45;;;;;;;17.25;58.39;98585.69;10367124;28;20050;-61
2024/03/27 12:18:05;;;;;;;2.85;1.77;;;;;;;17.30;58.75;98573.19;10369180;28;20457;-61
2024/03/27 12:23:05;;;;;;;6.83;4.07;;;;;;;17.34;61.34;98582.88;10368502;28;20038;-60
2024/03/27 12:28:06;;;;;;;7.70;2.10;;;;;;;17.43;58.27;98583.53;10367471;28;20756;-62
2024/03/27 12:33:06;;;;;;;4.20;2.47;;;;;;;17.33;59.84;98585.91;10365968;28;20273;-61
2024/03/27 12:38:10;;;;;;;8.57;1.70;;;;;;;17.35;58.76;98568.38;10381564;28;20688;-61
2024/03/27 12:43:10;;;;;;;4.65;2.00;;;;;;;17.29;59.30;98575.09;10367202;28;20319;-62
2024/03/27 12:48:11;;;;;;;6.10;2.40;;;;;;;17.27;57.75;98557.78;10368198;28;20025;-62
2024/03/27 12:53:11;;;;;;;4.78;1.60;;;;;;;17.24;58.73;98519.84;10356654;28;20759;-62
2024/03/27 12:58:14;;;;;;;5.77;1.93;;;;;;;17.20;58.09;98528.91;10365542;28;20054;-60
2024/03/27 13:03:14;;;;;;;4.63;1.50;;;;;;;17.20;57.44;98542.28;10366332;28;20295;-60
2024/03/27 13:08:16;;;;;;;4.13;1.93;;;;;;;17.17;58.37;98526.91;10365770;28;20026;-60
2024/03/27 13:13:16;;;;;;;5.38;1.42;;;;;;;17.13;58.55;98524.13;10366021;28;20296;-61
2024/03/27 13:18:16;;;;;;;9.02;4.30;;;;;;;17.10;57.80;98524.81;10367596;28;20022;-61
2024/03/27 13:23:17;;;;;;;2.87;1.60;;;;;;;17.12;57.11;98521.78;10364984;28;20034;-60
2024/03/27 13:28:17;;;;;;;8.30;2.10;;;;;;;17.14;57.83;98528.34;10366198;28;20628;-60
2024/03/27 13:33:17;;;;;;;2.97;1.60;;;;;;;17.16;57.22;98518.06;10364912;28;20276;-60
2024/03/27 13:38:18;;;;;;;3.43;2.10;;;;;;;17.15;57.71;98521.88;10364723;28;20268;-60
2024/03/27 13:43:18;;;;;;;2.67;1.23;;;;;;;17.14;57.69;98528.34;10364657;28;20300;-60
2024/03/27 13:48:18;;;;;;;2.80;1.52;;;;;;;17.15;56.24;98537.16;10364373;28;20280;-60
2024/03/27 13:53:19;;;;;;;2.30;1.33;;;;;;;17.16;57.57;98552.88;10366119;28;20022;-59
2024/03/27 13:58:19;;;;;;;4.73;2.03;;;;;;;17.19;57.34;98551.44;10365791;28;20284;-60
2024/03/27 14:03:19;;;;;;;5.67;1.90;;;;;;;17.21;57.65;98551.88;10364189;28;20299;-60
2024/03/27 14:08:20;;;;;;;4.78;1.35;;;;;;;17.23;56.56;98553.09;10365486;28;20284;-60
2024/03/27 14:13:20;;;;;;;2.80;1.23;;;;;;;17.26;56.42;98575.75;10372923;28;20050;-60
2024/03/27 14:18:20;;;;;;;3.07;1.80;;;;;;;17.24;56.18;98573.41;10370793;28;20334;-59
2024/03/27 14:23:21;;;;;;;3.13;1.93;;;;;;;17.22;56.89;98581.00;10372675;28;20342;-60
2024/03/27 14:28:22;;;;;;;2.15;1.35;;;;;;;17.20;56.61;98587.81;10370220;28;20283;-59
2024/03/27 14:33:22;;;;;;;2.63;1.20;;;;;;;17.27;55.79;98593.38;10371044;28;20021;-60
2024/03/27 14:38:23;;;;;;;3.33;1.20;;;;;;;17.27;56.86;98589.91;10371809;28;20037;-60
2024/03/27 14:43:23;;;;;;;2.17;1.20;;;;;;;17.22;55.68;98585.59;10371400;28;20064;-59
2024/03/27 14:48:23;;;;;;;4.30;1.60;;;;;;;17.24;56.37;98589.47;10369915;28;20486;-59
2024/03/27 14:53:24;;;;;;;2.80;1.27;;;;;;;17.21;56.44;98587.47;10371872;28;20268;-59
2024/03/27 14:58:24;;;;;;;3.03;1.65;;;;;;;17.21;56.43;98592.06;10369863;28;20751;-60
2024/03/27 15:03:25;;;;;;;2.90;1.07;;;;;;;17.17;57.28;98581.25;10368636;28;20024;-59
2024/03/27 15:08:25;;;;;;;1.95;1.05;;;;;;;17.15;56.63;98580.00;10369399;28;20280;-60
2024/03/27 15:13:25;;;;;;;2.97;1.50;;;;;;;17.15;56.29;98577.31;10370449;28;20045;-60
2024/03/27 15:18:26;;;;;;;2.20;1.38;;;;;;;17.19;56.87;98581.69;10369291;28;20021;-59
2024/03/27 15:23:26;;;;;;;2.60;1.20;;;;;;;17.23;56.37;98585.25;10369763;28;20484;-59
2024/03/27 15:28:27;;;;;;;1.77;1.10;;;;;;;17.19;56.48;98586.25;10369585;28;20029;-60
2024/03/27 15:33:27;;;;;;;1.80;1.10;;;;;;;17.19;55.97;98592.41;10369546;28;20090;-59
2024/03/27 15:38:27;;;;;;;5.20;1.93;;;;;;;17.19;56.77;98589.72;10368991;28;20276;-59
2024/03/27 15:43:28;;;;;;;10.93;2.00;;;;;;;17.29;56.45;98585.81;10368933;28;20764;-61
2024/03/27 15:48:28;;;;;;;6.73;2.10;;;;;;;17.35;56.03;98589.78;10368474;28;20280;-59
2024/03/27 15:53:28;;;;;;;13.43;2.67;;;;;;;17.36;57.03;98591.34;10369633;28;21241;-58
2024/03/27 15:58:29;;;;;;;6.43;2.45;;;;;;;17.43;56.57;98602.28;10367324;28;20273;-58
2024/03/27 16:03:29;;;;;;;8.13;1.95;;;;;;;17.45;57.06;98596.59;10369413;28;20038;-58
2024/03/27 16:08:29;;;;;;;10.13;1.97;;;;;;;17.51;57.22;98595.22;10367767;28;20041;-57
2024/03/27 16:13:31;;;;;;;14.63;2.17;;;;;;;17.62;56.48;98598.97;10360956;28;20281;-56
2024/03/27 16:18:31;;;;;;;13.25;3.47;;;;;;;17.63;58.48;98603.22;10366192;28;20277;-58
2024/03/27 16:23:32;;;;;;;8.67;3.87;;;;;;;17.65;58.08;98594.88;10365967;28;20022;-58
2024/03/27 16:28:32;;;;;;;9.73;3.93;;;;;;;17.67;57.92;98593.41;10366975;28;20300;-59
2024/03/27 16:33:32;;;;;;;10.30;4.50;;;;;;;17.71;58.06;98599.66;10361052;28;20951;-58
2024/03/27 16:38:33;;;;;;;16.47;4.87;;;;;;;17.75;59.08;98589.03;10362444;28;20034;-58
2024/03/27 16:43:33;;;;;;;16.57;5.77;;;;;;;17.81;59.23;98583.09;10374703;28;20304;-58
2024/03/27 16:48:33;;;;;;;11.10;5.70;;;;;;;17.83;58.69;98574.69;10370267;28;20028;-56
2024/03/27 16:53:33;;;;;;;21.27;6.63;;;;;;;17.88;59.57;98577.16;10378406;28;20275;-59
2024/03/27 16:58:34;;;;;;;17.03;6.37;;;;;;;17.90;60.95;98587.53;10384385;28;20288;-58
2024/03/27 17:03:34;;;;;;;12.90;7.13;;;;;;;18.01;61.45;98580.56;10366610;28;20365;-57
2024/03/27 17:08:34;;;;;;;17.57;8.30;;;;;;;17.97;60.46;98588.47;10367056;28;20145;-57
2024/03/27 17:13:37;;;;;;;12.07;6.27;;;;;;;17.83;60.82;98583.53;10367390;28;20288;-55
2024/03/27 17:18:38;;;;;;;11.88;6.38;;;;;;;17.82;60.77;98592.69;10367018;28;20285;-56
2024/03/27 17:23:38;;;;;;;17.97;6.40;;;;;;;17.75;60.63;98597.84;10366130;28;20022;-58
2024/03/27 17:28:38;;;;;;;14.63;7.00;;;;;;;17.76;59.80;98594.06;10365678;28;20280;-57
2024/03/27 17:33:39;;;;;;;9.90;6.47;;;;;;;17.70;60.17;98600.78;10367254;28;20289;-58
2024/03/27 17:38:40;;;;;;;10.10;5.80;;;;;;;17.66;60.84;98599.09;10366344;28;20311;-59
2024/03/27 17:43:40;;;;;;;15.20;5.20;;;;;;;17.61;60.39;98602.78;10367897;28;20088;-59
2024/03/27 17:48:40;;;;;;;15.57;6.27;;;;;;;17.59;61.00;98613.06;10373080;28;20291;-58
2024/03/27 17:53:40;;;;;;;16.57;6.00;;;;;;;17.45;60.88;98610.75;10374769;28;20593;-59
2024/03/27 17:58:41;;;;;;;9.73;5.20;;;;;;;17.37;60.57;98602.84;10374369;28;20349;-59
2024/03/27 18:03:41;;;;;;;11.93;5.47;;;;;;;17.33;60.36;98610.78;10373956;28;20288;-59
2024/03/27 18:08:41;;;;;;;10.40;4.27;;;;;;;17.28;60.28;98619.03;10373651;28;20281;-59
2024/03/27 18:13:42;;;;;;;8.80;5.07;;;;;;;17.20;60.00;98612.72;10372489;28;20288;-57
2024/03/27 18:18:44;;;;;;;12.05;4.82;;;;;;;17.25;60.34;98620.50;10372316;28;20273;-59
2024/03/27 18:23:44;;;;;;;8.55;4.32;;;;;;;17.22;60.12;98618.50;10371931;28;20018;-58
2024/03/27 18:28:45;;;;;;;18.57;6.07;;;;;;;17.22;59.34;98625.75;10372121;28;20405;-59
2024/03/27 18:33:45;;;;;;;8.30;4.13;;;;;;;17.19;59.44;98634.47;10372983;28;20284;-59
2024/03/27 18:38:46;;;;;;;11.93;4.17;;;;;;;17.17;58.89;98637.50;10354923;28;20022;-57
2024/03/27 18:43:46;;;;;;;8.73;3.93;;;;;;;17.16;59.85;98637.81;10372893;28;20299;-59
2024/03/27 18:48:46;;;;;;;7.77;3.40;;;;;;;17.17;59.08;98631.34;10354572;28;20821;-58
2024/03/27 18:53:47;;;;;;;7.93;3.93;;;;;;;17.21;58.72;98629.56;10372425;28;20279;-57
2024/03/27 18:58:47;;;;;;;7.82;3.58;;;;;;;17.20;58.94;98620.75;10371854;28;20280;-58
2024/03/27 19:03:47;;;;;;;9.83;4.07;;;;;;;17.26;57.85;98618.59;10372106;28;20030;-59
2024/03/27 19:08:48;;;;;;;8.47;3.37;;;;;;;17.30;59.06;98621.41;10381256;28;20284;-58
2024/03/27 19:13:48;;;;;;;3.97;3.30;;;;;;;17.33;57.68;98623.41;10386072;28;20307;-59
2024/03/27 19:18:48;;;;;;;11.20;3.47;;;;;;;17.36;57.24;98617.38;10383965;28;20273;-58
2024/03/27 19:23:48;;;;;;;5.30;2.83;;;;;;;17.38;58.36;98615.13;10380791;28;20025;-58
2024/03/27 19:28:49;;;;;;;8.13;3.22;;;;;;;17.38;57.74;98609.75;10371102;28;20264;-58
2024/03/27 19:33:49;;;;;;;11.50;2.90;;;;;;;17.40;58.40;98600.25;10370136;28;20026;-59
2024/03/27 19:38:49;;;;;;;4.20;2.60;;;;;;;17.40;57.73;98600.25;10370550;28;20652;-59
2024/03/27 19:43:50;;;;;;;5.97;2.17;;;;;;;17.44;58.22;98608.44;10393300;28;20293;-59
2024/03/27 19:48:50;;;;;;;6.20;2.77;;;;;;;17.41;57.32;98606.44;10368791;28;20287;-59
2024/03/27 19:53:51;;;;;;;6.82;2.35;;;;;;;17.40;57.78;98594.91;10364941;28;20644;-58
2024/03/27 19:58:52;;;;;;;4.73;2.33;;;;;;;17.37;57.24;98603.63;10367100;28;20100;-59
2024/03/27 20:03:53;;;;;;;3.55;1.63;;;;;;;17.34;58.08;98598.16;10368630;28;20308;-59
2024/03/27 20:08:53;;;;;;;3.63;1.93;;;;;;;17.31;57.14;98594.28;10367072;28;20088;-59
2024/03/27 20:13:53;;;;;;;6.82;2.40;;;;;;;17.32;58.10;98589.69;10368965;28;20295;-58
2024/03/27 20:18:54;;;;;;;3.55;1.95;;;;;;;17.31;57.39;98583.56;10367498;28;20022;-58
2024/03/27 20:23:55;;;;;;;6.00;2.20;;;;;;;17.31;57.05;98580.09;10351449;28;20022;-58
2024/03/27 20:28:55;;;;;;;4.40;1.92;;;;;;;17.30;57.13;98582.00;10367960;28;20277;-58
2024/03/27 20:33:56;;;;;;;2.67;1.80;;;;;;;17.33;57.29;98577.88;10368709;28;20033;-58
2024/03/27 20:38:56;;;;;;;3.23;1.63;;;;;;;17.33;57.31;98557.22;10367998;28;20295;-58
2024/03/27 20:43:56;;;;;;;3.70;1.60;;;;;;;17.34;56.23;98553.41;10368514;28;20617;-59
2024/03/27 20:48:57;;;;;;;7.17;1.80;;;;;;;17.36;55.97;98545.03;10366222;28;20279;-58
2024/03/27 20:53:57;;;;;;;6.67;1.80;;;;;;;17.42;56.89;98562.44;10367117;28;20304;-58
2024/03/27 20:58:57;;;;;;;5.37;1.60;;;;;;;17.42;57.11;98555.19;10368512;28;20304;-58
2024/03/27 21:03:58;;;;;;;2.23;1.13;;;;;;;17.46;56.10;98560.63;10367865;28;20301;-57
2024/03/27 21:09:08;;;;;;;3.73;1.63;;;;;;;17.45;56.04;98556.41;10368258;28;20269;-57
2024/03/27 21:14:08;;;;;;;2.70;2.05;;;;;;;17.43;56.16;98551.38;10368044;28;20291;-58
2024/03/27 21:19:08;;;;;;;3.60;1.58;;;;;;;17.40;56.86;98545.91;10369655;28;20041;-58
2024/03/27 21:24:08;;;;;;;4.03;1.57;;;;;;;17.41;55.98;98552.84;10376222;28;20034;-58
2024/03/27 21:29:09;;;;;;;2.40;1.90;;;;;;;17.39;56.22;98563.88;10376516;28;20338;-58
2024/03/27 21:34:09;;;;;;;3.83;1.27;;;;;;;17.38;56.83;98558.88;10375817;28;20314;-58
2024/03/27 21:39:09;;;;;;;2.77;1.57;;;;;;;17.38;56.07;98561.53;10375424;28;20302;-58
2024/03/27 21:44:10;;;;;;;3.50;1.80;;;;;;;17.36;56.26;98555.75;10375295;28;20292;-58
2024/03/27 21:49:10;;;;;;;3.92;1.60;;;;;;;17.37;55.78;98546.59;10375511;28;20273;-58
2024/03/27 21:54:11;;;;;;;2.83;1.50;;;;;;;17.36;57.09;98548.50;10374777;28;20034;-58
2024/03/27 21:59:11;;;;;;;2.97;1.43;;;;;;;17.38;56.03;98540.13;10375482;28;20032;-58
2024/03/27 22:04:11;;;;;;;2.93;1.30;;;;;;;17.43;55.71;98534.53;10374677;28;20303;-58
2024/03/27 22:09:12;;;;;;;2.57;1.60;;;;;;;17.43;55.60;98526.50;10374544;28;20354;-58
2024/03/27 22:14:12;;;;;;;1.30;1.08;;;;;;;17.41;56.27;98518.81;10372140;28;20370;-58
2024/03/27 22:19:12;;;;;;;1.90;1.30;;;;;;;17.39;54.90;98510.31;10371532;28;20030;-57
2024/03/27 22:24:13;;;;;;;1.77;1.23;;;;;;;17.39;55.78;98507.63;10371229;28;20032;-58
2024/03/27 22:29:13;;;;;;;2.40;1.33;;;;;;;17.40;56.07;98513.75;10371218;28;20289;-58
2024/03/27 22:34:13;;;;;;;1.88;1.13;;;;;;;17.34;55.58;98526.63;10383833;28;20268;-57
2024/03/27 22:39:13;;;;;;;2.10;1.33;;;;;;;17.36;55.85;98529.75;10371179;28;20030;-58
2024/03/27 22:44:14;;;;;;;3.23;1.37;;;;;;;17.37;55.70;98538.56;10370630;28;20292;-58
2024/03/27 22:49:14;;;;;;;3.77;1.30;;;;;;;17.43;54.87;98521.13;10370719;28;20280;-59
2024/03/27 22:54:14;;;;;;;3.23;1.30;;;;;;;17.40;54.57;98503.81;10369114;28;20768;-58
2024/03/27 22:59:16;;;;;;;1.53;1.03;;;;;;;17.39;55.39;98502.28;10370602;28;20288;-58
2024/03/27 23:04:16;;;;;;;2.80;1.35;;;;;;;17.42;55.08;98506.19;10368823;28;20293;-59
2024/03/27 23:09:16;;;;;;;2.33;1.23;;;;;;;17.39;55.55;98502.28;10370149;28;20030;-58
2024/03/27 23:14:17;;;;;;;2.63;1.20;;;;;;;17.38;55.39;98502.63;10332607;28;1061690;-58